Time;durP1;ratioP1;P1;durP2;ratioP2;P2;SDS_P1;SDS_P2;PMS_P1;PMS_P2;Temp;Humidity;BMP_temperature;BMP_pressure;BME280_temperature;BME280_humidity;BME280_pressure;Samples;Min_cycle;Max_cycle;Signal;HPM_P1;HPM_P2
2021/12/28 00:01:17;;;;;;;;;;;;;;;15.01;78.86;100622.78;5033203;28;20031;-54
2021/12/28 00:03:45;;;;;;;;;;;;;;;15.01;79.23;100625.59;5042524;28;20474;-54
2021/12/28 00:06:12;;;;;;;;;;;;;;;15.01;79.47;100610.69;5052803;28;19978;-55
2021/12/28 00:08:42;;;;;;;;;;;;;;;15.04;79.55;100638.19;5033693;28;19928;-56
2021/12/28 00:11:09;;;;;;;;;;;;;;;15.03;79.64;100626.09;5032998;28;20028;-54
2021/12/28 00:13:36;;;;;;;;;;;;;;;15.05;79.54;100628.63;5032947;28;19996;-55
2021/12/28 00:18:45;;;;;;;;;;;;;;;15.03;79.69;100625.28;5032508;28;19995;-52
2021/12/28 00:21:13;;;;;;;;;;;;;;;15.02;79.58;100626.44;5032605;28;19921;-56
2021/12/28 00:23:40;;;;;;;;;;;;;;;14.99;79.68;100621.41;5032211;28;20012;-55
2021/12/28 00:26:08;;;;;;;;;;;;;;;14.98;79.98;100628.19;5034272;28;19987;-55
2021/12/28 00:28:36;;;;;;;;;;;;;;;14.98;79.92;100625.38;5040720;28;19999;-54
2021/12/28 00:31:04;;;;;;;;;;;;;;;14.96;80.01;100636.94;5032595;28;19921;-56
2021/12/28 00:33:30;;;;;;;;;;;;;;;14.95;80.63;100623.19;5033371;28;19925;-55
2021/12/28 00:35:57;;;;;;;;;;;;;;;14.95;80.47;100645.69;5032778;28;20011;-55
2021/12/28 00:38:25;;;;;;;;;;;;;;;14.97;80.60;100643.38;5032454;28;19921;-54
2021/12/28 00:40:53;;;;;;;;;;;;;;;14.96;81.04;100642.56;5031299;28;20049;-53
2021/12/28 00:43:21;;;;;;;;;;;;;;;14.92;81.23;100642.34;5032790;28;19999;-57
2021/12/28 00:45:48;;;;;;;;;;;;;;;14.82;81.58;100650.94;5032293;28;20007;-56
2021/12/28 00:48:14;;;;;;;;;;;;;;;14.76;82.36;100646.53;5032614;28;19921;-55
2021/12/28 00:50:41;;;;;;;;;;;;;;;14.69;82.19;100643.28;5033123;28;19956;-53
2021/12/28 00:53:08;;;;;;;;;;;;;;;14.67;82.73;100635.16;5036103;28;19979;-54
2021/12/28 00:55:35;;;;;;;;;;;;;;;14.63;83.00;100636.06;5042871;28;20004;-54
2021/12/28 00:58:03;;;;;;;;;;;;;;;14.61;83.38;100629.94;5055226;28;19999;-55
2021/12/28 01:00:33;;;;;;;;;;;;;;;14.57;83.56;100637.31;5056605;28;19970;-55
2021/12/28 01:03:00;;;;;;;;;;;;;;;14.57;83.78;100628.88;5056301;28;19942;-51
2021/12/28 01:05:28;;;;;;;;;;;;;;;14.57;83.92;100628.88;5055788;28;20361;-55
2021/12/28 01:07:55;;;;;;;;;;;;;;;14.55;84.35;100631.97;5043978;28;19999;-52
2021/12/28 01:10:27;;;;;;;;;;;;;;;14.55;84.33;100634.78;5055954;28;20003;-55
2021/12/28 01:12:55;;;;;;;;;;;;;;;14.57;84.27;100640.13;5056007;28;20020;-54
2021/12/28 01:15:23;;;;;;;;;;;;;;;14.57;84.74;100645.75;5055997;28;20007;-55
2021/12/28 01:17:49;;;;;;;;;;;;;;;14.55;84.46;100636.78;5054671;28;19921;-54
2021/12/28 01:20:17;;;;;;;;;;;;;;;14.53;84.97;100642.72;5056071;28;20376;-54
2021/12/28 01:22:45;;;;;;;;;;;;;;;14.50;84.84;100639.66;5055406;28;20019;-52
2021/12/28 01:25:12;;;;;;;;;;;;;;;14.52;84.97;100640.19;5056217;28;20000;-51
2021/12/28 01:27:39;;;;;;;;;;;;;;;14.52;84.98;100631.75;5039387;28;20012;-54
2021/12/28 01:30:07;;;;;;;;;;;;;;;14.51;84.86;100642.16;5035983;28;20028;-54
2021/12/28 01:32:34;;;;;;;;;;;;;;;14.52;85.02;100637.38;5035710;28;20388;-54
2021/12/28 01:35:02;;;;;;;;;;;;;;;14.53;85.20;100648.34;5035776;28;20356;-54
2021/12/28 01:37:29;;;;;;;;;;;;;;;14.50;84.92;100629.28;5035723;28;20388;-53
2021/12/28 01:39:55;;;;;;;;;;;;;;;14.53;85.24;100639.03;5036179;28;19954;-54
2021/12/28 01:42:22;;;;;;;;;;;;;;;14.52;85.27;100640.19;5035618;28;20385;-53
2021/12/28 01:44:49;;;;;;;;;;;;;;;14.52;85.07;100640.19;5035537;28;20015;-54
2021/12/28 01:47:17;;;;;;;;;;;;;;;14.54;85.33;100649.16;5035698;28;19921;-54
2021/12/28 01:49:44;;;;;;;;;;;;;;;14.53;85.55;100639.91;5035501;28;19921;-53
2021/12/28 01:52:11;;;;;;;;;;;;;;;14.53;85.25;100648.34;5035442;28;19927;-54
2021/12/28 01:54:38;;;;;;;;;;;;;;;14.50;85.27;100650.88;5035473;28;20404;-53
2021/12/28 01:57:05;;;;;;;;;;;;;;;14.46;85.65;100657.13;5039568;28;20436;-52
2021/12/28 01:59:32;;;;;;;;;;;;;;;14.46;85.71;100662.72;5055248;28;19971;-50
2021/12/28 02:01:59;;;;;;;;;;;;;;;14.47;85.42;100652.31;5053728;28;20372;-53
2021/12/28 02:04:27;;;;;;;;;;;;;;;14.49;85.81;100649.19;5034791;28;20028;-53
2021/12/28 02:06:55;;;;;;;;;;;;;;;14.49;85.93;100644.41;5034959;28;19928;-53
2021/12/28 02:09:21;;;;;;;;;;;;;;;14.51;85.97;100638.53;5035394;28;20011;-53
2021/12/28 02:11:48;;;;;;;;;;;;;;;14.52;86.05;100655.06;5034876;28;19927;-52
2021/12/28 02:14:15;;;;;;;;;;;;;;;14.54;85.67;100654.78;5044901;28;19947;-53
2021/12/28 02:16:43;;;;;;;;;;;;;;;14.57;85.92;100659.78;5054934;28;20003;-53
2021/12/28 02:19:10;;;;;;;;;;;;;;;14.58;85.55;100650.22;5054891;28;19960;-54
2021/12/28 02:21:38;;;;;;;;;;;;;;;14.60;85.59;100651.59;5034433;28;19920;-52
2021/12/28 02:24:05;;;;;;;;;;;;;;;14.62;85.64;100656.88;5034281;28;20008;-53
2021/12/28 02:26:33;;;;;;;;;;;;;;;14.64;85.66;100665.88;5034594;28;19976;-51
2021/12/28 02:28:59;;;;;;;;;;;;;;;14.64;85.50;100663.06;5034772;28;19921;-51
2021/12/28 02:31:26;;;;;;;;;;;;;;;14.66;85.67;100669.19;5034758;28;20017;-53
2021/12/28 02:33:53;;;;;;;;;;;;;;;14.67;85.75;100673.69;5034057;28;19921;-52
2021/12/28 02:36:20;;;;;;;;;;;;;;;14.68;85.46;100676.19;5034671;28;19928;-53
2021/12/28 02:38:47;;;;;;;;;;;;;;;14.69;85.42;100677.84;5034635;28;20008;-53
2021/12/28 02:41:14;;;;;;;;;;;;;;;14.72;85.20;100690.47;5036742;28;20365;-57
2021/12/28 02:43:42;;;;;;;;;;;;;;;14.75;85.58;100674.97;5054454;28;19971;-54
2021/12/28 02:46:09;;;;;;;;;;;;;;;14.75;85.14;100689.84;5054194;28;20019;-55
2021/12/28 02:48:37;;;;;;;;;;;;;;;14.75;85.04;100678.59;5053614;28;19921;-53
2021/12/28 02:51:06;;;;;;;;;;;;;;;14.77;85.08;100696.03;5036648;28;20008;-54
2021/12/28 02:53:32;;;;;;;;;;;;;;;14.76;85.13;100697.13;5034346;28;19921;-55
2021/12/28 02:55:59;;;;;;;;;;;;;;;14.75;85.27;100691.84;5034194;28;20524;-51
2021/12/28 02:58:32;;;;;;;;;;;;;;;14.74;85.16;100690.19;5033644;28;20011;-54
2021/12/28 03:01:09;;;;;;;;;;;;;;;14.74;85.40;100701.41;5034100;28;20011;-53
2021/12/28 03:03:37;;;;;;;;;;;;;;;14.73;85.39;100686.50;5034039;28;19975;-53
2021/12/28 03:06:05;;;;;;;;;;;;;;;14.74;85.44;100696.63;5034465;28;19963;-54
2021/12/28 03:08:33;;;;;;;;;;;;;;;14.73;85.50;100705.34;5034121;28;20431;-54
2021/12/28 03:11:01;;;;;;;;;;;;;;;14.71;85.50;100708.47;5033667;28;19960;-53
2021/12/28 03:13:34;;;;;;;;;;;;;;;14.68;85.68;100698.66;5033975;28;20025;-54
2021/12/28 03:16:01;;;;;;;;;;;;;;;14.62;85.87;100711.13;5033841;28;20020;-54
2021/12/28 03:18:27;;;;;;;;;;;;;;;14.60;85.84;100695.72;5037441;28;20039;-53
2021/12/28 03:20:54;;;;;;;;;;;;;;;14.56;86.06;100686.22;5052458;28;20027;-54
2021/12/28 03:23:22;;;;;;;;;;;;;;;14.57;86.16;100668.22;5038449;28;20036;-55
2021/12/28 03:25:49;;;;;;;;;;;;;;;14.55;86.37;100691.00;5033351;28;20015;-54
2021/12/28 03:28:36;;;;;;;;;;;;;;;14.58;86.31;100698.00;5040625;28;20011;-53
2021/12/28 03:31:05;;;;;;;;;;;;;;;14.59;85.94;100706.09;5053837;28;19990;-53
2021/12/28 03:33:37;;;;;;;;;;;;;;;14.60;86.32;100695.72;5053597;28;19927;-53
2021/12/28 03:36:05;;;;;;;;;;;;;;;14.61;86.16;100705.81;5037809;28;20042;-53
2021/12/28 03:38:32;;;;;;;;;;;;;;;14.61;86.38;100692.59;5033909;28;19925;-54
2021/12/28 03:41:00;;;;;;;;;;;;;;;14.64;86.15;100702.41;5033308;28;20031;-52
2021/12/28 03:43:26;;;;;;;;;;;;;;;14.66;85.96;100698.13;5033150;28;19921;-54
2021/12/28 03:45:54;;;;;;;;;;;;;;;14.69;86.14;100693.88;5033056;28;20004;-52
2021/12/28 03:48:21;;;;;;;;;;;;;;;14.70;86.23;100701.19;5033404;28;19931;-53
2021/12/28 03:50:47;;;;;;;;;;;;;;;14.71;85.88;100697.22;5032996;28;20024;-52
2021/12/28 03:53:15;;;;;;;;;;;;;;;14.72;85.83;100665.16;5033037;28;19968;-54
2021/12/28 03:55:42;;;;;;;;;;;;;;;14.71;85.93;100688.81;5032503;28;19979;-54
2021/12/28 03:58:08;;;;;;;;;;;;;;;14.73;86.01;100699.72;5044687;28;20016;-54
2021/12/28 04:00:38;;;;;;;;;;;;;;;14.75;86.03;100694.66;5052936;28;19920;-54
2021/12/28 04:03:06;;;;;;;;;;;;;;;14.75;85.81;100689.84;5053324;28;19943;-55
2021/12/28 04:05:33;;;;;;;;;;;;;;;14.72;85.87;100704.50;5036555;28;19921;-54
2021/12/28 04:08:00;;;;;;;;;;;;;;;14.72;85.91;100704.50;5032779;28;19967;-55
2021/12/28 04:10:33;;;;;;;;;;;;;;;14.75;86.01;100709.53;5032852;28;20019;-54
2021/12/28 04:12:59;;;;;;;;;;;;;;;14.78;85.68;100708.09;5033391;28;19968;-56
2021/12/28 04:15:26;;;;;;;;;;;;;;;14.79;85.74;100710.59;5032769;28;20423;-53
2021/12/28 04:17:53;;;;;;;;;;;;;;;14.78;85.51;100725.78;5032863;28;19968;-54
2021/12/28 04:20:20;;;;;;;;;;;;;;;14.81;85.48;100725.19;5032749;28;20031;-55
2021/12/28 04:22:47;;;;;;;;;;;;;;;14.82;85.63;100721.22;5032694;28;19953;-55
2021/12/28 04:25:15;;;;;;;;;;;;;;;14.82;85.50;100726.84;5049241;28;19967;-54
2021/12/28 04:27:42;;;;;;;;;;;;;;;14.84;85.57;100735.00;5044609;28;20436;-54
2021/12/28 04:30:09;;;;;;;;;;;;;;;14.82;85.54;100732.47;5047367;28;20012;-55
2021/12/28 04:32:36;;;;;;;;;;;;;;;14.84;85.69;100735.81;5032475;28;20452;-54
2021/12/28 04:35:03;;;;;;;;;;;;;;;14.84;85.42;100732.19;5032196;28;19925;-54
2021/12/28 04:37:32;;;;;;;;;;;;;;;14.85;85.51;100729.06;5032335;28;20019;-54
2021/12/28 04:39:59;;;;;;;;;;;;;;;14.86;85.74;100744.78;5040028;28;20411;-53
2021/12/28 04:42:28;;;;;;;;;;;;;;;14.87;85.73;100745.59;5052788;28;19979;-54
2021/12/28 04:44:54;;;;;;;;;;;;;;;14.85;85.70;100743.13;5040149;28;20003;-54
2021/12/28 04:47:21;;;;;;;;;;;;;;;14.85;85.90;100737.50;5031556;28;19972;-54
2021/12/28 04:49:48;;;;;;;;;;;;;;;14.86;85.36;100747.59;5032502;28;20413;-54
2021/12/28 04:52:16;;;;;;;;;;;;;;;14.86;85.79;100755.19;5032665;28;20012;-54
2021/12/28 04:54:43;;;;;;;;;;;;;;;14.88;85.58;100748.13;5038462;28;19920;-53
2021/12/28 04:57:09;;;;;;;;;;;;;;;14.89;85.57;100746.97;5052698;28;20004;-55
2021/12/28 04:59:37;;;;;;;;;;;;;;;14.87;85.72;100754.91;5041402;28;19956;-54
2021/12/28 05:02:04;;;;;;;;;;;;;;;14.83;85.69;100756.63;5032316;28;19967;-54
2021/12/28 05:04:31;;;;;;;;;;;;;;;14.81;86.07;100761.72;5033076;28;19921;-53
2021/12/28 05:06:57;;;;;;;;;;;;;;;14.78;86.11;100762.34;5032069;28;19957;-54
2021/12/28 05:09:24;;;;;;;;;;;;;;;14.74;86.45;100761.28;5032249;28;20373;-55
2021/12/28 05:11:51;;;;;;;;;;;;;;;14.73;86.33;100772.81;5032232;28;20020;-55
2021/12/28 05:14:18;;;;;;;;;;;;;;;14.73;86.43;100761.56;5032496;28;20106;-54
2021/12/28 05:16:45;;;;;;;;;;;;;;;14.74;86.32;100758.47;5031909;28;19964;-55
2021/12/28 05:19:14;;;;;;;;;;;;;;;14.75;86.36;100760.13;5032022;28;19943;-55
2021/12/28 05:21:43;;;;;;;;;;;;;;;14.62;86.43;100742.03;5032628;28;19928;-53
2021/12/28 05:24:09;;;;;;;;;;;;;;;14.79;86.54;100764.00;5032223;28;19928;-56
2021/12/28 05:26:36;;;;;;;;;;;;;;;14.80;86.51;100782.56;5032268;28;20325;-56
2021/12/28 05:29:04;;;;;;;;;;;;;;;14.84;86.37;100765.91;5045321;28;19926;-54
2021/12/28 05:31:30;;;;;;;;;;;;;;;14.86;86.37;100767.25;5051798;28;20011;-54
2021/12/28 05:33:58;;;;;;;;;;;;;;;14.88;86.44;100764.16;5033354;28;20410;-55
2021/12/28 05:36:25;;;;;;;;;;;;;;;14.88;86.10;100764.16;5031878;28;20395;-54
2021/12/28 05:38:52;;;;;;;;;;;;;;;14.89;86.29;100754.59;5041402;28;20016;-54
2021/12/28 05:41:19;;;;;;;;;;;;;;;14.86;86.43;100767.25;5036094;28;20350;-55
2021/12/28 05:43:46;;;;;;;;;;;;;;;14.87;86.49;100774.59;5035511;28;19932;-54
2021/12/28 05:46:12;;;;;;;;;;;;;;;14.89;86.29;100772.28;5035592;28;20300;-54
2021/12/28 05:48:39;;;;;;;;;;;;;;;14.92;86.35;100782.94;5035477;28;20008;-53
2021/12/28 05:51:06;;;;;;;;;;;;;;;14.95;86.51;100786.28;5034904;28;20004;-51
2021/12/28 05:53:33;;;;;;;;;;;;;;;14.96;86.50;100787.94;5035336;28;20019;-54
2021/12/28 05:55:59;;;;;;;;;;;;;;;14.97;86.53;100790.44;5036104;28;20258;-54
2021/12/28 05:58:26;;;;;;;;;;;;;;;14.99;86.46;100792.97;5035164;28;20427;-54
2021/12/28 06:00:53;;;;;;;;;;;;;;;15.00;86.35;100791.81;5035113;28;20012;-53
2021/12/28 06:03:19;;;;;;;;;;;;;;;14.98;86.17;100802.56;5035545;28;19927;-53
2021/12/28 06:05:46;;;;;;;;;;;;;;;14.99;86.24;100809.84;5035034;28;20432;-51
2021/12/28 06:08:13;;;;;;;;;;;;;;;14.99;86.50;100805.03;5035058;28;20015;-54
2021/12/28 06:10:57;;;;;;;;;;;;;;;14.99;86.54;100813.47;5035243;28;20369;-53
2021/12/28 06:13:24;;;;;;;;;;;;;;;14.98;86.34;100825.06;5035413;28;20008;-53
2021/12/28 06:15:50;;;;;;;;;;;;;;;15.00;86.41;100825.56;5035216;28;19959;-53
2021/12/28 06:18:17;;;;;;;;;;;;;;;15.01;86.58;100830.03;5034855;28;19972;-52
2021/12/28 06:20:44;;;;;;;;;;;;;;;15.02;86.55;100832.56;5046986;28;20015;-53
2021/12/28 06:23:11;;;;;;;;;;;;;;;15.04;86.43;100829.44;5052819;28;20209;-54
2021/12/28 06:25:38;;;;;;;;;;;;;;;15.05;86.59;100833.94;5034395;28;19928;-54
2021/12/28 06:28:06;;;;;;;;;;;;;;;15.04;86.30;100835.06;5034545;28;20412;-53
2021/12/28 06:30:33;;;;;;;;;;;;;;;15.03;86.66;100827.78;5035314;28;20018;-52
2021/12/28 06:33:00;;;;;;;;;;;;;;;15.02;86.50;100837.34;5034597;28;19921;-54
2021/12/28 06:35:27;;;;;;;;;;;;;;;15.02;86.63;100842.97;5052806;28;20331;-54
2021/12/28 06:37:54;;;;;;;;;;;;;;;15.02;86.32;100843.81;5054485;28;19963;-55
2021/12/28 06:40:20;;;;;;;;;;;;;;;15.03;86.58;100851.09;5036241;28;20019;-54
2021/12/28 06:42:47;;;;;;;;;;;;;;;15.03;86.50;100844.66;5034382;28;19921;-54
2021/12/28 06:45:13;;;;;;;;;;;;;;;15.03;86.77;100836.22;5034599;28;19928;-53
2021/12/28 06:47:40;;;;;;;;;;;;;;;15.03;86.46;100841.84;5035249;28;20241;-55
2021/12/28 06:50:08;;;;;;;;;;;;;;;15.03;86.53;100839.03;5034023;28;20388;-53
2021/12/28 06:52:35;;;;;;;;;;;;;;;15.02;86.58;100826.94;5039944;28;19975;-54
2021/12/28 06:55:02;;;;;;;;;;;;;;;15.05;86.82;100825.50;5054146;28;20368;-54
2021/12/28 06:57:29;;;;;;;;;;;;;;;15.04;86.62;100827.47;5054565;28;20404;-55
2021/12/28 06:59:55;;;;;;;;;;;;;;;15.04;86.80;100818.19;5040745;28;19983;-54
2021/12/28 07:02:22;;;;;;;;;;;;;;;15.05;86.59;100815.09;5033956;28;20455;-55
2021/12/28 07:04:49;;;;;;;;;;;;;;;15.07;86.97;100826.84;5053311;28;19920;-54
2021/12/28 07:07:16;;;;;;;;;;;;;;;15.09;86.58;100844.28;5053757;28;20019;-55
2021/12/28 07:09:43;;;;;;;;;;;;;;;15.09;87.02;100849.06;5035561;28;20617;-56
2021/12/28 07:12:10;;;;;;;;;;;;;;;15.08;86.45;100834.16;5034191;28;20288;-56
2021/12/28 07:14:36;;;;;;;;;;;;;;;15.08;87.04;100822.91;5065382;28;20097;-55
2021/12/28 07:17:04;;;;;;;;;;;;;;;15.05;86.75;100825.50;5034151;28;20011;-56
2021/12/28 07:19:31;;;;;;;;;;;;;;;15.06;86.98;100838.41;5034438;28;19960;-55
2021/12/28 07:21:58;;;;;;;;;;;;;;;15.06;86.76;100849.66;5034425;28;20043;-55
2021/12/28 07:24:24;;;;;;;;;;;;;;;14.97;86.84;100855.13;5033200;28;20428;-55
2021/12/28 07:26:52;;;;;;;;;;;;;;;14.89;87.07;100853.00;5033565;28;19925;-55
2021/12/28 07:29:19;;;;;;;;;;;;;;;14.85;87.49;100852.75;5032625;28;20000;-55
2021/12/28 07:31:46;;;;;;;;;;;;;;;14.82;87.57;100861.81;5033611;28;20015;-54
2021/12/28 07:34:13;;;;;;;;;;;;;;;14.80;87.57;100866.91;5033703;28;19921;-55
2021/12/28 07:36:40;;;;;;;;;;;;;;;14.77;88.02;100859.06;5034099;28;20024;-53
2021/12/28 07:39:07;;;;;;;;;;;;;;;14.75;88.15;100860.50;5040304;28;20324;-56
2021/12/28 07:41:33;;;;;;;;;;;;;;;14.74;88.00;100865.28;5053181;28;20033;-55
2021/12/28 07:44:01;;;;;;;;;;;;;;;14.75;88.41;100872.59;5052321;28;20019;-55
2021/12/28 07:46:27;;;;;;;;;;;;;;;14.75;88.30;100866.97;5053223;28;20392;-54
2021/12/28 07:48:55;;;;;;;;;;;;;;;14.77;88.21;100887.19;5034849;28;19921;-53
2021/12/28 07:51:21;;;;;;;;;;;;;;;14.78;88.52;100885.22;5033201;28;20266;-54
2021/12/28 07:53:48;;;;;;;;;;;;;;;14.80;88.50;100880.97;5033529;28;20011;-55
2021/12/28 07:56:15;;;;;;;;;;;;;;;14.82;88.14;100887.09;5033160;28;19952;-53
2021/12/28 07:58:44;;;;;;;;;;;;;;;14.85;88.13;100894.13;5033273;28;19920;-53
2021/12/28 08:01:11;;;;;;;;;;;;;;;14.86;88.13;100910.66;5032130;28;20034;-54
2021/12/28 08:03:38;;;;;;;;;;;;;;;14.87;88.43;100922.75;5032476;28;19921;-55
2021/12/28 08:06:04;;;;;;;;;;;;;;;14.83;88.47;100919.69;5032869;28;19983;-56
2021/12/28 08:08:31;;;;;;;;;;;;;;;14.78;88.41;100921.75;5048854;28;19921;-56
2021/12/28 08:10:58;;;;;;;;;;;;;;;14.75;88.15;100916.72;5051844;28;20015;-56
2021/12/28 08:13:25;;;;;;;;;;;;;;;14.71;88.60;100921.28;5053000;28;20337;-55
2021/12/28 08:15:52;;;;;;;;;;;;;;;14.70;88.75;100931.69;5050988;28;20015;-56
2021/12/28 08:18:18;;;;;;;;;;;;;;;14.69;88.63;100933.66;5052251;28;19921;-57
2021/12/28 08:20:45;;;;;;;;;;;;;;;14.70;89.17;100937.31;5033015;28;19927;-56
2021/12/28 08:23:12;;;;;;;;;;;;;;;14.68;88.93;100940.41;5032530;28;20377;-56
2021/12/28 08:25:38;;;;;;;;;;;;;;;14.71;89.36;100936.19;5032190;28;20416;-56
2021/12/28 08:28:06;;;;;;;;;;;;;;;14.72;89.21;100935.03;5036934;28;19920;-56
2021/12/28 08:30:35;;;;;;;;;;;;;;;14.75;89.45;100940.06;5038789;28;19921;-56
2021/12/28 08:33:06;;;;;;;;;;;;;;;14.75;89.63;100948.50;5052639;28;19921;-55
2021/12/28 08:35:34;;;;;;;;;;;;;;;14.75;89.67;100934.44;5043575;28;20015;-56
2021/12/28 08:38:00;;;;;;;;;;;;;;;14.76;89.66;100936.09;5032669;28;19921;-56
2021/12/28 08:40:27;;;;;;;;;;;;;;;14.76;89.89;100950.16;5032312;28;19964;-56
2021/12/28 08:42:54;;;;;;;;;;;;;;;14.78;89.96;100949.88;5032603;28;19963;-56
2021/12/28 08:45:20;;;;;;;;;;;;;;;14.80;89.86;100961.63;5040780;28;19944;-56
2021/12/28 08:47:48;;;;;;;;;;;;;;;14.83;90.17;100973.13;5051686;28;19927;-56
2021/12/28 08:50:15;;;;;;;;;;;;;;;14.85;90.17;100962.44;5034248;28;20017;-54
2021/12/28 08:52:41;;;;;;;;;;;;;;;14.90;90.06;100973.59;5032523;28;20330;-53
2021/12/28 08:55:16;;;;;;;;;;;;;;;14.93;90.09;100973.00;5032114;28;19928;-54
2021/12/28 08:57:43;;;;;;;;;;;;;;;14.95;89.84;100963.44;5032649;28;19948;-53
2021/12/28 09:00:12;;;;;;;;;;;;;;;14.94;90.04;100973.88;5031621;28;20365;-54
2021/12/28 09:02:39;;;;;;;;;;;;;;;14.92;90.03;100981.75;5031771;28;20020;-53
2021/12/28 09:05:06;;;;;;;;;;;;;;;14.91;89.95;100968.84;5064107;28;20443;-54
2021/12/28 09:07:32;;;;;;;;;;;;;;;14.90;90.17;100982.03;5032324;28;20023;-53
2021/12/28 09:10:00;;;;;;;;;;;;;;;14.93;90.30;100974.97;5032038;28;20016;-53
2021/12/28 09:12:26;;;;;;;;;;;;;;;14.96;89.94;100968.75;5033380;28;20032;-53
2021/12/28 09:14:53;;;;;;;;;;;;;;;14.99;90.06;100967.34;5055489;28;20007;-54
2021/12/28 09:17:20;;;;;;;;;;;;;;;15.03;90.09;100971.22;5055915;28;20339;-54
2021/12/28 09:19:46;;;;;;;;;;;;;;;15.06;90.05;100979.06;5048567;28;19921;-54
2021/12/28 09:22:13;;;;;;;;;;;;;;;15.07;90.06;100994.78;5036227;28;20016;-54
2021/12/28 09:24:40;;;;;;;;;;;;;;;15.08;90.17;100993.66;5035732;28;20008;-55
2021/12/28 09:27:12;;;;;;;;;;;;;;;15.12;90.20;100995.56;5035366;28;19921;-54
2021/12/28 09:29:42;;;;;;;;;;;;;;;15.16;90.01;101009.88;5035705;28;19921;-55
2021/12/28 09:32:15;;;;;;;;;;;;;;;15.19;90.16;101000.00;5054349;28;20402;-54
2021/12/28 09:34:43;;;;;;;;;;;;;;;15.21;90.38;101014.59;5055131;28;20016;-53
2021/12/28 09:37:10;;;;;;;;;;;;;;;15.24;90.25;101009.19;5035516;28;20460;-55
2021/12/28 09:39:36;;;;;;;;;;;;;;;15.24;90.02;101002.72;5034403;28;19921;-54
2021/12/28 09:42:03;;;;;;;;;;;;;;;15.28;90.36;101015.06;5035063;28;19927;-55
2021/12/28 09:44:31;;;;;;;;;;;;;;;15.30;90.12;101008.00;5035430;28;20389;-54
2021/12/28 09:46:59;;;;;;;;;;;;;;;15.31;90.15;101009.66;5035460;28;20296;-54
2021/12/28 09:49:27;;;;;;;;;;;;;;;15.30;90.39;101015.59;5041908;28;20436;-54
2021/12/28 09:51:55;;;;;;;;;;;;;;;15.30;89.97;101013.63;5055276;28;20372;-53
2021/12/28 09:54:24;;;;;;;;;;;;;;;15.32;89.89;101007.72;5039367;28;19976;-54
2021/12/28 09:56:51;;;;;;;;;;;;;;;15.35;90.00;101013.56;5035066;28;20007;-54
2021/12/28 09:59:17;;;;;;;;;;;;;;;15.32;90.05;101022.59;5035040;28;20015;-53
2021/12/28 10:01:45;;;;;;;;;;;;;;;15.30;90.09;101036.13;5036139;28;19921;-54
2021/12/28 10:04:12;;;;;;;;;;;;;;;15.33;90.08;101040.31;5035251;28;19936;-54
2021/12/28 10:06:39;;;;;;;;;;;;;;;15.37;90.28;101052.66;5034840;28;19964;-54
2021/12/28 10:09:12;;;;;;;;;;;;;;;15.45;89.95;101060.41;5034769;28;19921;-54
2021/12/28 10:11:48;;;;;;;;;;;;;;;15.61;90.04;101066.69;5035624;28;19928;-52
2021/12/28 10:14:18;;;;;;;;;;;;;;;15.93;90.65;101067.97;5034907;28;19921;-53
2021/12/28 10:16:46;;;;;;;;;;;;;;;16.04;90.04;101066.69;5034713;28;19975;-55
2021/12/28 10:19:33;;;;;;;;;;;;;;;16.09;89.97;101058.97;5034916;28;19964;-54
2021/12/28 10:22:18;;;;;;;;;;;;;;;16.20;89.88;101058.81;5034741;28;20035;-56
2021/12/28 10:24:45;;;;;;;;;;;;;;;16.51;89.38;101064.78;5036204;28;19965;-56
2021/12/28 10:27:14;;;;;;;;;;;;;;;16.46;88.65;101062.91;5053806;28;19927;-54
2021/12/28 10:29:41;;;;;;;;;;;;;;;16.47;88.80;101070.22;5042516;28;20015;-51
2021/12/28 10:32:23;;;;;;;;;;;;;;;16.50;88.77;101063.13;5038073;28;20012;-55
2021/12/28 10:34:55;;;;;;;;;;;;;;;16.41;88.44;101065.81;5037854;28;20345;-54
2021/12/28 10:37:23;;;;;;;;;;;;;;;16.38;88.05;101074.88;5034613;28;20012;-53
2021/12/28 10:39:56;;;;;;;;;;;;;;;16.43;88.29;101085.25;5046280;28;20025;-55
2021/12/28 10:42:55;;;;;;;;;;;;;;;16.42;88.04;101086.38;5054331;28;20008;-54
2021/12/28 10:45:28;;;;;;;;;;;;;;;16.40;87.72;101078.22;5063382;28;19920;-53
2021/12/28 10:47:55;;;;;;;;;;;;;;;16.32;87.78;101085.41;5049110;28;19921;-55
2021/12/28 10:50:22;;;;;;;;;;;;;;;16.29;87.54;101094.47;5034597;28;20305;-54
2021/12/28 10:52:52;;;;;;;;;;;;;;;16.31;87.75;101095.00;5034153;28;20023;-55
2021/12/28 10:55:24;;;;;;;;;;;;;;;16.35;87.57;101098.06;5047261;28;19964;-54
2021/12/28 10:57:51;;;;;;;;;;;;;;;16.41;87.87;101093.16;5037029;28;19921;-53
2021/12/28 11:00:26;;;;;;;;;;;;;;;16.51;87.41;101092.97;5038539;28;20015;-55
2021/12/28 11:03:16;;;;;;;;;;;;;;;16.60;86.71;101110.88;5034521;28;19921;-54
2021/12/28 11:05:44;;;;;;;;;;;;;;;16.63;86.87;101106.63;5033812;28;19979;-53
2021/12/28 11:08:11;;;;;;;;;;;;;;;16.93;87.67;101103.28;5033743;28;20016;-55
2021/12/28 11:10:57;;;;;;;;;;;;;;;17.33;86.87;101092.34;5033773;28;19976;-53
2021/12/28 11:13:26;;;;;;;;;;;;;;;17.45;86.24;101081.38;5033671;28;19931;-53
2021/12/28 11:15:53;;;;;;;;;;;;;;;17.53;85.54;101091.94;5033875;28;19968;-53
2021/12/28 11:18:23;;;;;;;;;;;;;;;17.92;85.73;101099.06;5034294;28;19921;-53
2021/12/28 11:20:50;;;;;;;;;;;;;;;18.30;85.62;101087.44;5033676;28;20019;-53
2021/12/28 11:23:22;;;;;;;;;;;;;;;18.68;82.94;101085.06;5033802;28;20016;-54
2021/12/28 11:26:07;;;;;;;;;;;;;;;18.61;82.74;101093.16;5033273;28;20012;-55
2021/12/28 11:28:41;;;;;;;;;;;;;;;18.53;82.46;101093.94;5033501;28;19925;-55
2021/12/28 11:31:07;;;;;;;;;;;;;;;18.43;81.95;101091.38;5033457;28;19968;-55
2021/12/28 11:33:44;;;;;;;;;;;;;;;18.40;82.00;101097.66;5048366;28;19924;-55
2021/12/28 11:36:11;;;;;;;;;;;;;;;18.60;83.08;101091.50;5037954;28;20437;-54
2021/12/28 11:38:38;;;;;;;;;;;;;;;19.14;79.96;101098.03;5033342;28;20011;-54
2021/12/28 11:41:06;;;;;;;;;;;;;;;19.52;79.55;101093.81;5033548;28;20015;-54
2021/12/28 11:43:37;;;;;;;;;;;;;;;20.15;79.45;101088.84;5033557;28;19943;-55
2021/12/28 11:46:07;;;;;;;;;;;;;;;20.12;77.70;101088.31;5033386;28;19927;-54
2021/12/28 11:48:35;;;;;;;;;;;;;;;19.90;78.27;101094.16;5032961;28;19983;-55
2021/12/28 11:51:02;;;;;;;;;;;;;;;19.73;76.92;101103.44;5033279;28;19999;-56
2021/12/28 11:53:29;;;;;;;;;;;;;;;19.54;77.53;101098.00;5033456;28;20023;-56
2021/12/28 11:55:56;;;;;;;;;;;;;;;19.38;77.61;101099.59;5033117;28;19970;-55
2021/12/28 11:58:41;;;;;;;;;;;;;;;19.26;77.75;101099.41;5033357;28;20132;-56
2021/12/28 12:01:30;;;;;;;;;;;;;;;19.21;77.64;101102.38;5052111;28;20008;-55
2021/12/28 12:03:57;;;;;;;;;;;;;;;19.22;77.76;101115.38;5052733;28;19976;-53
2021/12/28 12:06:44;;;;;;;;;;;;;;;18.95;77.21;101097.41;5037658;28;20031;-54
2021/12/28 12:09:10;;;;;;;;;;;;;;;18.97;77.26;101099.91;5038330;28;20266;-55
2021/12/28 12:12:00;;;;;;;;;;;;;;;19.18;77.80;101101.03;5052724;28;20028;-54
2021/12/28 12:14:47;;;;;;;;;;;;;;;19.34;76.47;101104.25;5039837;28;20082;-56
2021/12/28 12:17:39;;;;;;;;;;;;;;;19.67;76.94;101115.25;5032652;28;19960;-54
2021/12/28 12:20:27;;;;;;;;;;;;;;;19.69;75.83;101110.91;5031993;28;20051;-55
2021/12/28 12:22:55;;;;;;;;;;;;;;;19.70;76.64;101106.94;5033044;28;19932;-56
2021/12/28 12:25:46;;;;;;;;;;;;;;;19.97;76.00;101105.84;5033129;28;19932;-55
2021/12/28 12:28:12;;;;;;;;;;;;;;;19.81;74.78;101101.78;5032361;28;20019;-55
2021/12/28 12:30:45;;;;;;;;;;;;;;;20.40;75.25;101102.19;5032673;28;20039;-54
2021/12/28 12:33:12;;;;;;;;;;;;;;;21.21;75.00;101109.09;5032271;28;19928;-56
2021/12/28 12:35:42;;;;;;;;;;;;;;;21.60;71.25;101109.97;5032302;28;19921;-55
2021/12/28 12:38:14;;;;;;;;;;;;;;;20.87;70.56;101105.19;5032597;28;20015;-55
2021/12/28 12:40:54;;;;;;;;;;;;;;;20.50;72.61;101096.22;5032860;28;20334;-55
2021/12/28 12:43:21;;;;;;;;;;;;;;;20.24;72.25;101099.03;5033271;28;20004;-56
2021/12/28 12:45:51;;;;;;;;;;;;;;;19.87;72.57;101094.81;5031981;28;20015;-55